sensor_id;sensor_type;location;lat;lon;timestamp;temperature;humidity
16327;DHT22;34812;49.846;9.610;2022-08-18T00:00:23;16.80;99.90
16327;DHT22;34812;49.846;9.610;2022-08-18T00:01:24;16.80;99.90
16327;DHT22;34812;49.846;9.610;2022-08-18T00:02:28;16.90;99.90
16327;DHT22;34812;49.846;9.610;2022-08-18T00:03:30;16.90;99.90
16327;DHT22;34812;49.846;9.610;2022-08-18T00:04:32;16.90;99.90
16327;DHT22;34812;49.846;9.610;2022-08-18T00:05:37;17.00;99.90
16327;DHT22;34812;49.846;9.610;2022-08-18T00:06:39;17.00;99.90
16327;DHT22;34812;49.846;9.610;2022-08-18T00:07:40;17.00;99.90
16327;DHT22;34812;49.846;9.610;2022-08-18T00:08:42;17.10;99.90
16327;DHT22;34812;49.846;9.610;2022-08-18T00:09:43;17.10;99.90
16327;DHT22;34812;49.846;9.610;2022-08-18T00:10:47;17.10;99.90
16327;DHT22;34812;49.846;9.610;2022-08-18T00:11:47;17.10;99.90
16327;DHT22;34812;49.846;9.610;2022-08-18T00:12:49;17.00;99.90
16327;DHT22;34812;49.846;9.610;2022-08-18T00:13:50;17.10;99.90
16327;DHT22;34812;49.846;9.610;2022-08-18T00:14:52;17.00;99.90
16327;DHT22;34812;49.846;9.610;2022-08-18T00:15:53;17.00;99.90
16327;DHT22;34812;49.846;9.610;2022-08-18T00:16:55;17.00;99.90
16327;DHT22;34812;49.846;9.610;2022-08-18T00:17:55;17.00;99.90
16327;DHT22;34812;49.846;9.610;2022-08-18T00:18:57;17.00;99.90
16327;DHT22;34812;49.846;9.610;2022-08-18T00:20:00;17.00;99.90
16327;DHT22;34812;49.846;9.610;2022-08-18T00:21:04;17.10;99.90
16327;DHT22;34812;49.846;9.610;2022-08-18T00:22:05;17.10;99.90
16327;DHT22;34812;49.846;9.610;2022-08-18T00:23:07;17.10;99.90
16327;DHT22;34812;49.846;9.610;2022-08-18T00:24:08;17.10;99.90
16327;DHT22;34812;49.846;9.610;2022-08-18T00:25:11;17.10;99.90
16327;DHT22;34812;49.846;9.610;2022-08-18T00:26:13;17.10;99.90
16327;DHT22;34812;49.846;9.610;2022-08-18T00:27:17;17.10;99.90
16327;DHT22;34812;49.846;9.610;2022-08-18T00:28:20;17.10;99.90
16327;DHT22;34812;49.846;9.610;2022-08-18T00:29:21;17.10;99.90
16327;DHT22;34812;49.846;9.610;2022-08-18T00:30:23;17.10;99.90
16327;DHT22;34812;49.846;9.610;2022-08-18T00:31:24;17.10;99.90
16327;DHT22;34812;49.846;9.610;2022-08-18T00:32:28;17.10;99.90
16327;DHT22;34812;49.846;9.610;2022-08-18T00:33:29;17.10;99.90
16327;DHT22;34812;49.846;9.610;2022-08-18T00:34:31;17.20;99.90
16327;DHT22;34812;49.846;9.610;2022-08-18T00:35:33;17.20;99.90
16327;DHT22;34812;49.846;9.610;2022-08-18T00:36:36;17.20;99.90
16327;DHT22;34812;49.846;9.610;2022-08-18T00:37:37;17.30;99.90
16327;DHT22;34812;49.846;9.610;2022-08-18T00:38:39;17.40;99.90
16327;DHT22;34812;49.846;9.610;2022-08-18T00:39:40;17.50;99.90
16327;DHT22;34812;49.846;9.610;2022-08-18T00:40:44;17.50;99.90
16327;DHT22;34812;49.846;9.610;2022-08-18T00:41:45;17.50;99.90
16327;DHT22;34812;49.846;9.610;2022-08-18T00:42:49;17.60;99.90
16327;DHT22;34812;49.846;9.610;2022-08-18T00:43:51;17.70;99.90
16327;DHT22;34812;49.846;9.610;2022-08-18T00:44:54;17.70;99.90
16327;DHT22;34812;49.846;9.610;2022-08-18T00:45:55;17.70;99.90
16327;DHT22;34812;49.846;9.610;2022-08-18T00:46:56;17.80;99.90
16327;DHT22;34812;49.846;9.610;2022-08-18T00:47:58;17.80;99.90
16327;DHT22;34812;49.846;9.610;2022-08-18T00:49:00;17.80;99.90
16327;DHT22;34812;49.846;9.610;2022-08-18T00:50:02;17.80;99.90
16327;DHT22;34812;49.846;9.610;2022-08-18T00:51:09;17.80;99.90
16327;DHT22;34812;49.846;9.610;2022-08-18T00:52:13;17.80;99.90
16327;DHT22;34812;49.846;9.610;2022-08-18T00:53:20;17.80;99.90
16327;DHT22;34812;49.846;9.610;2022-08-18T00:54:24;17.90;99.90
16327;DHT22;34812;49.846;9.610;2022-08-18T00:55:27;17.90;99.90
16327;DHT22;34812;49.846;9.610;2022-08-18T00:56:35;17.90;99.90
16327;DHT22;34812;49.846;9.610;2022-08-18T00:57:37;17.90;99.90
16327;DHT22;34812;49.846;9.610;2022-08-18T00:58:46;18.00;99.90
16327;DHT22;34812;49.846;9.610;2022-08-18T00:59:52;18.00;99.90
16327;DHT22;34812;49.846;9.610;2022-08-18T01:00:54;18.00;99.90
16327;DHT22;34812;49.846;9.610;2022-08-18T01:01:57;18.10;99.90
16327;DHT22;34812;49.846;9.610;2022-08-18T01:03:05;18.10;99.90
16327;DHT22;34812;49.846;9.610;2022-08-18T01:04:13;18.10;99.90
16327;DHT22;34812;49.846;9.610;2022-08-18T01:05:21;18.10;99.90
16327;DHT22;34812;49.846;9.610;2022-08-18T01:06:27;18.20;99.90
16327;DHT22;34812;49.846;9.610;2022-08-18T01:07:36;18.20;99.90
16327;DHT22;34812;49.846;9.610;2022-08-18T01:08:39;18.20;99.90
16327;DHT22;34812;49.846;9.610;2022-08-18T01:09:41;18.20;99.90
16327;DHT22;34812;49.846;9.610;2022-08-18T01:10:42;18.20;99.90
16327;DHT22;34812;49.846;9.610;2022-08-18T01:11:44;18.20;99.90
16327;DHT22;34812;49.846;9.610;2022-08-18T01:12:47;18.20;99.90
16327;DHT22;34812;49.846;9.610;2022-08-18T01:13:50;18.20;99.90
16327;DHT22;34812;49.846;9.610;2022-08-18T01:14:51;18.20;99.90
16327;DHT22;34812;49.846;9.610;2022-08-18T01:15:53;18.20;99.90
16327;DHT22;34812;49.846;9.610;2022-08-18T01:16:54;18.20;99.90
16327;DHT22;34812;49.846;9.610;2022-08-18T01:18:14;18.20;99.90
16327;DHT22;34812;49.846;9.610;2022-08-18T01:19:34;18.30;99.90
16327;DHT22;34812;49.846;9.610;2022-08-18T01:21:03;18.30;99.90
16327;DHT22;34812;49.846;9.610;2022-08-18T01:22:28;18.30;99.90
16327;DHT22;34812;49.846;9.610;2022-08-18T01:23:35;18.30;99.90
16327;DHT22;34812;49.846;9.610;2022-08-18T01:24:36;18.30;99.90
16327;DHT22;34812;49.846;9.610;2022-08-18T01:25:56;18.30;99.90
16327;DHT22;34812;49.846;9.610;2022-08-18T01:27:00;18.40;99.90
16327;DHT22;34812;49.846;9.610;2022-08-18T01:28:01;18.40;99.90
16327;DHT22;34812;49.846;9.610;2022-08-18T01:29:03;18.40;99.90
16327;DHT22;34812;49.846;9.610;2022-08-18T01:30:12;18.40;99.90
16327;DHT22;34812;49.846;9.610;2022-08-18T01:31:29;18.40;99.90
16327;DHT22;34812;49.846;9.610;2022-08-18T01:32:32;18.50;99.90
16327;DHT22;34812;49.846;9.610;2022-08-18T01:33:35;18.50;99.90
16327;DHT22;34812;49.846;9.610;2022-08-18T01:34:37;18.40;99.90
16327;DHT22;34812;49.846;9.610;2022-08-18T01:35:39;18.50;99.90
16327;DHT22;34812;49.846;9.610;2022-08-18T01:36:42;18.50;99.90
16327;DHT22;34812;49.846;9.610;2022-08-18T01:37:43;18.50;99.90
16327;DHT22;34812;49.846;9.610;2022-08-18T01:38:48;18.40;99.90
16327;DHT22;34812;49.846;9.610;2022-08-18T01:39:50;18.40;99.90
16327;DHT22;34812;49.846;9.610;2022-08-18T01:40:52;18.40;99.90
16327;DHT22;34812;49.846;9.610;2022-08-18T01:41:53;18.40;99.90
16327;DHT22;34812;49.846;9.610;2022-08-18T01:42:55;18.40;99.90
16327;DHT22;34812;49.846;9.610;2022-08-18T01:43:56;18.40;99.90
16327;DHT22;34812;49.846;9.610;2022-08-18T01:44:58;18.40;99.90
16327;DHT22;34812;49.846;9.610;2022-08-18T01:45:59;18.40;99.90
16327;DHT22;34812;49.846;9.610;2022-08-18T01:47:03;18.40;99.90
16327;DHT22;34812;49.846;9.610;2022-08-18T01:48:04;18.40;99.90
16327;DHT22;34812;49.846;9.610;2022-08-18T01:49:07;18.40;99.90
16327;DHT22;34812;49.846;9.610;2022-08-18T01:50:08;18.30;99.90
16327;DHT22;34812;49.846;9.610;2022-08-18T01:51:11;18.30;99.90
16327;DHT22;34812;49.846;9.610;2022-08-18T01:52:17;18.30;99.90
16327;DHT22;34812;49.846;9.610;2022-08-18T01:53:20;18.30;99.90
16327;DHT22;34812;49.846;9.610;2022-08-18T01:54:22;18.40;99.90
16327;DHT22;34812;49.846;9.610;2022-08-18T01:55:24;18.40;99.90
16327;DHT22;34812;49.846;9.610;2022-08-18T01:56:27;18.30;99.90
16327;DHT22;34812;49.846;9.610;2022-08-18T01:57:29;18.40;99.90
16327;DHT22;34812;49.846;9.610;2022-08-18T01:58:30;18.30;99.90
16327;DHT22;34812;49.846;9.610;2022-08-18T01:59:32;18.40;99.90
16327;DHT22;34812;49.846;9.610;2022-08-18T02:00:34;18.30;99.90
16327;DHT22;34812;49.846;9.610;2022-08-18T02:01:38;18.40;99.90
16327;DHT22;34812;49.846;9.610;2022-08-18T02:02:40;18.40;99.90
16327;DHT22;34812;49.846;9.610;2022-08-18T02:03:45;18.40;99.90
16327;DHT22;34812;49.846;9.610;2022-08-18T02:04:48;18.40;99.90
16327;DHT22;34812;49.846;9.610;2022-08-18T02:05:51;18.40;99.90
16327;DHT22;34812;49.846;9.610;2022-08-18T02:06:54;18.50;99.90
16327;DHT22;34812;49.846;9.610;2022-08-18T02:07:57;18.60;99.90
16327;DHT22;34812;49.846;9.610;2022-08-18T02:08:58;18.60;99.90
16327;DHT22;34812;49.846;9.610;2022-08-18T02:10:01;18.60;99.90
16327;DHT22;34812;49.846;9.610;2022-08-18T02:11:02;18.60;99.90
16327;DHT22;34812;49.846;9.610;2022-08-18T02:12:04;18.60;99.90
16327;DHT22;34812;49.846;9.610;2022-08-18T02:13:06;18.60;99.90
16327;DHT22;34812;49.846;9.610;2022-08-18T02:14:08;18.60;99.90
16327;DHT22;34812;49.846;9.610;2022-08-18T02:15:10;18.60;99.90
16327;DHT22;34812;49.846;9.610;2022-08-18T02:16:12;18.60;99.90
16327;DHT22;34812;49.846;9.610;2022-08-18T02:17:13;18.60;99.90
16327;DHT22;34812;49.846;9.610;2022-08-18T02:18:15;18.60;99.90
16327;DHT22;34812;49.846;9.610;2022-08-18T02:21:19;18.60;99.90
16327;DHT22;34812;49.846;9.610;2022-08-18T02:22:21;18.70;99.90
16327;DHT22;34812;49.846;9.610;2022-08-18T02:23:22;18.70;99.90
16327;DHT22;34812;49.846;9.610;2022-08-18T02:24:24;18.80;99.90
16327;DHT22;34812;49.846;9.610;2022-08-18T02:25:26;18.80;99.90
16327;DHT22;34812;49.846;9.610;2022-08-18T02:26:27;18.80;99.90
16327;DHT22;34812;49.846;9.610;2022-08-18T02:27:28;18.80;99.90
16327;DHT22;34812;49.846;9.610;2022-08-18T02:28:30;18.70;99.90
16327;DHT22;34812;49.846;9.610;2022-08-18T02:29:31;18.70;99.90
16327;DHT22;34812;49.846;9.610;2022-08-18T02:30:33;18.70;99.90
16327;DHT22;34812;49.846;9.610;2022-08-18T02:31:36;18.70;99.90
16327;DHT22;34812;49.846;9.610;2022-08-18T02:32:38;18.70;99.90
16327;DHT22;34812;49.846;9.610;2022-08-18T02:33:39;18.70;99.90
16327;DHT22;34812;49.846;9.610;2022-08-18T02:34:41;18.70;99.90
16327;DHT22;34812;49.846;9.610;2022-08-18T02:35:42;18.70;99.90
16327;DHT22;34812;49.846;9.610;2022-08-18T02:36:45;18.70;99.90
16327;DHT22;34812;49.846;9.610;2022-08-18T02:37:46;18.70;99.90
16327;DHT22;34812;49.846;9.610;2022-08-18T02:38:48;18.70;99.90
16327;DHT22;34812;49.846;9.610;2022-08-18T02:39:48;18.60;99.90
16327;DHT22;34812;49.846;9.610;2022-08-18T02:40:55;18.60;99.90
16327;DHT22;34812;49.846;9.610;2022-08-18T02:41:56;18.60;99.90
16327;DHT22;34812;49.846;9.610;2022-08-18T02:42:58;18.60;99.90
16327;DHT22;34812;49.846;9.610;2022-08-18T02:43:59;18.60;99.90
16327;DHT22;34812;49.846;9.610;2022-08-18T02:45:01;18.60;99.90
16327;DHT22;34812;49.846;9.610;2022-08-18T02:46:02;18.60;99.90
16327;DHT22;34812;49.846;9.610;2022-08-18T02:47:05;18.60;99.90
16327;DHT22;34812;49.846;9.610;2022-08-18T02:48:06;18.60;99.90
16327;DHT22;34812;49.846;9.610;2022-08-18T02:49:08;18.60;99.90
16327;DHT22;34812;49.846;9.610;2022-08-18T02:50:09;18.50;99.90
16327;DHT22;34812;49.846;9.610;2022-08-18T02:51:15;18.50;99.90
16327;DHT22;34812;49.846;9.610;2022-08-18T02:52:16;18.50;99.90
16327;DHT22;34812;49.846;9.610;2022-08-18T02:53:17;18.40;99.90
16327;DHT22;34812;49.846;9.610;2022-08-18T02:54:22;18.40;99.90
16327;DHT22;34812;49.846;9.610;2022-08-18T02:55:24;18.40;99.90
16327;DHT22;34812;49.846;9.610;2022-08-18T02:56:29;18.40;99.90
16327;DHT22;34812;49.846;9.610;2022-08-18T02:57:30;18.30;99.90
16327;DHT22;34812;49.846;9.610;2022-08-18T02:58:31;18.30;99.90
16327;DHT22;34812;49.846;9.610;2022-08-18T02:59:33;18.30;99.90
16327;DHT22;34812;49.846;9.610;2022-08-18T03:00:34;18.30;99.90
16327;DHT22;34812;49.846;9.610;2022-08-18T03:01:37;18.30;99.90
16327;DHT22;34812;49.846;9.610;2022-08-18T03:02:39;18.30;99.90
16327;DHT22;34812;49.846;9.610;2022-08-18T03:03:41;18.20;99.90
16327;DHT22;34812;49.846;9.610;2022-08-18T03:04:42;18.20;99.90
16327;DHT22;34812;49.846;9.610;2022-08-18T03:05:43;18.30;99.90
16327;DHT22;34812;49.846;9.610;2022-08-18T03:06:44;18.20;99.90
16327;DHT22;34812;49.846;9.610;2022-08-18T03:07:46;18.20;99.90
16327;DHT22;34812;49.846;9.610;2022-08-18T03:08:47;18.20;99.90
16327;DHT22;34812;49.846;9.610;2022-08-18T03:09:49;18.20;99.90
16327;DHT22;34812;49.846;9.610;2022-08-18T03:10:50;18.20;99.90
16327;DHT22;34812;49.846;9.610;2022-08-18T03:11:54;18.20;99.90
16327;DHT22;34812;49.846;9.610;2022-08-18T03:12:55;18.20;99.90
16327;DHT22;34812;49.846;9.610;2022-08-18T03:13:57;18.20;99.90
16327;DHT22;34812;49.846;9.610;2022-08-18T03:14:57;18.20;99.90
16327;DHT22;34812;49.846;9.610;2022-08-18T03:16:01;18.20;99.90
16327;DHT22;34812;49.846;9.610;2022-08-18T03:17:04;18.20;99.90
16327;DHT22;34812;49.846;9.610;2022-08-18T03:18:06;18.20;99.90
16327;DHT22;34812;49.846;9.610;2022-08-18T03:19:07;18.20;99.90
16327;DHT22;34812;49.846;9.610;2022-08-18T03:20:09;18.20;99.90
16327;DHT22;34812;49.846;9.610;2022-08-18T03:21:13;18.20;99.90
16327;DHT22;34812;49.846;9.610;2022-08-18T03:22:15;18.20;99.90
16327;DHT22;34812;49.846;9.610;2022-08-18T03:23:16;18.20;99.90
16327;DHT22;34812;49.846;9.610;2022-08-18T03:24:18;18.20;99.90
16327;DHT22;34812;49.846;9.610;2022-08-18T03:25:19;18.20;99.90
16327;DHT22;34812;49.846;9.610;2022-08-18T03:26:22;18.20;99.90
16327;DHT22;34812;49.846;9.610;2022-08-18T03:27:25;18.20;99.90
16327;DHT22;34812;49.846;9.610;2022-08-18T03:28:27;18.20;99.90
16327;DHT22;34812;49.846;9.610;2022-08-18T03:29:28;18.20;99.90
16327;DHT22;34812;49.846;9.610;2022-08-18T03:30:30;18.30;99.90
16327;DHT22;34812;49.846;9.610;2022-08-18T03:31:30;18.20;99.90
16327;DHT22;34812;49.846;9.610;2022-08-18T03:32:32;18.20;99.90
16327;DHT22;34812;49.846;9.610;2022-08-18T03:33:33;18.20;99.90
16327;DHT22;34812;49.846;9.610;2022-08-18T03:34:35;18.20;99.90
16327;DHT22;34812;49.846;9.610;2022-08-18T03:35:36;18.20;99.90
16327;DHT22;34812;49.846;9.610;2022-08-18T03:36:38;18.20;99.90
16327;DHT22;34812;49.846;9.610;2022-08-18T03:37:41;18.20;99.90
16327;DHT22;34812;49.846;9.610;2022-08-18T03:38:44;18.10;99.90
16327;DHT22;34812;49.846;9.610;2022-08-18T03:39:45;18.10;99.90
16327;DHT22;34812;49.846;9.610;2022-08-18T03:40:50;18.10;99.90
16327;DHT22;34812;49.846;9.610;2022-08-18T03:41:52;18.10;99.90
16327;DHT22;34812;49.846;9.610;2022-08-18T03:42:55;18.00;99.90
16327;DHT22;34812;49.846;9.610;2022-08-18T03:43:56;18.00;99.90
16327;DHT22;34812;49.846;9.610;2022-08-18T03:44:57;18.00;99.90
16327;DHT22;34812;49.846;9.610;2022-08-18T03:46:00;18.00;99.90
16327;DHT22;34812;49.846;9.610;2022-08-18T03:47:01;17.90;99.90
16327;DHT22;34812;49.846;9.610;2022-08-18T03:48:03;17.90;99.90
16327;DHT22;34812;49.846;9.610;2022-08-18T03:49:04;18.00;99.90
16327;DHT22;34812;49.846;9.610;2022-08-18T03:50:07;18.00;99.90
16327;DHT22;34812;49.846;9.610;2022-08-18T03:51:10;18.00;99.90
16327;DHT22;34812;49.846;9.610;2022-08-18T03:52:14;18.00;99.90
16327;DHT22;34812;49.846;9.610;2022-08-18T03:53:14;18.00;99.90
16327;DHT22;34812;49.846;9.610;2022-08-18T03:54:16;18.00;99.90
16327;DHT22;34812;49.846;9.610;2022-08-18T03:55:17;17.90;99.90
16327;DHT22;34812;49.846;9.610;2022-08-18T03:56:22;17.90;99.90
16327;DHT22;34812;49.846;9.610;2022-08-18T03:57:23;17.90;99.90
16327;DHT22;34812;49.846;9.610;2022-08-18T03:58:26;17.90;99.90
16327;DHT22;34812;49.846;9.610;2022-08-18T03:59:27;17.80;99.90
16327;DHT22;34812;49.846;9.610;2022-08-18T04:00:31;17.80;99.90
16327;DHT22;34812;49.846;9.610;2022-08-18T04:01:36;17.70;99.90
16327;DHT22;34812;49.846;9.610;2022-08-18T04:02:39;17.60;99.90
16327;DHT22;34812;49.846;9.610;2022-08-18T04:03:40;17.60;99.90
16327;DHT22;34812;49.846;9.610;2022-08-18T04:04:42;17.50;99.90
16327;DHT22;34812;49.846;9.610;2022-08-18T04:05:42;17.50;99.90
16327;DHT22;34812;49.846;9.610;2022-08-18T04:06:47;17.40;99.90
16327;DHT22;34812;49.846;9.610;2022-08-18T04:07:49;17.30;99.90
16327;DHT22;34812;49.846;9.610;2022-08-18T04:08:52;17.20;99.90
16327;DHT22;34812;49.846;9.610;2022-08-18T04:09:53;17.10;99.90
16327;DHT22;34812;49.846;9.610;2022-08-18T04:10:54;17.10;99.90
16327;DHT22;34812;49.846;9.610;2022-08-18T04:11:56;17.10;99.90
16327;DHT22;34812;49.846;9.610;2022-08-18T04:12:58;17.00;99.90
16327;DHT22;34812;49.846;9.610;2022-08-18T04:14:00;16.90;99.90
16327;DHT22;34812;49.846;9.610;2022-08-18T04:15:02;16.90;99.90
16327;DHT22;34812;49.846;9.610;2022-08-18T04:16:05;16.90;99.90
16327;DHT22;34812;49.846;9.610;2022-08-18T04:17:06;16.80;99.90
16327;DHT22;34812;49.846;9.610;2022-08-18T04:18:07;16.80;99.90
16327;DHT22;34812;49.846;9.610;2022-08-18T04:19:09;16.90;99.90
16327;DHT22;34812;49.846;9.610;2022-08-18T04:20:13;16.80;99.90
16327;DHT22;34812;49.846;9.610;2022-08-18T04:21:13;16.80;99.90
16327;DHT22;34812;49.846;9.610;2022-08-18T04:22:15;16.70;99.90
16327;DHT22;34812;49.846;9.610;2022-08-18T04:23:16;16.70;99.90
16327;DHT22;34812;49.846;9.610;2022-08-18T04:24:19;16.60;99.90
16327;DHT22;34812;49.846;9.610;2022-08-18T04:25:20;16.60;99.90
16327;DHT22;34812;49.846;9.610;2022-08-18T04:26:22;16.60;99.90
16327;DHT22;34812;49.846;9.610;2022-08-18T04:27:22;16.60;99.90
16327;DHT22;34812;49.846;9.610;2022-08-18T04:28:24;16.60;99.90
16327;DHT22;34812;49.846;9.610;2022-08-18T04:29:26;16.60;99.90
16327;DHT22;34812;49.846;9.610;2022-08-18T04:30:28;16.60;99.90
16327;DHT22;34812;49.846;9.610;2022-08-18T04:31:30;16.50;99.90
16327;DHT22;34812;49.846;9.610;2022-08-18T04:32:31;16.50;99.90
16327;DHT22;34812;49.846;9.610;2022-08-18T04:33:32;16.50;99.90
16327;DHT22;34812;49.846;9.610;2022-08-18T04:34:34;16.50;99.90
16327;DHT22;34812;49.846;9.610;2022-08-18T04:35:35;16.50;99.90
16327;DHT22;34812;49.846;9.610;2022-08-18T04:36:37;16.50;99.90
16327;DHT22;34812;49.846;9.610;2022-08-18T04:37:38;16.50;99.90
16327;DHT22;34812;49.846;9.610;2022-08-18T04:38:40;16.50;99.90
16327;DHT22;34812;49.846;9.610;2022-08-18T04:39:43;16.50;99.90
16327;DHT22;34812;49.846;9.610;2022-08-18T04:40:45;16.50;99.90
16327;DHT22;34812;49.846;9.610;2022-08-18T04:41:46;16.50;99.90
16327;DHT22;34812;49.846;9.610;2022-08-18T04:42:48;16.50;99.90
16327;DHT22;34812;49.846;9.610;2022-08-18T04:43:49;16.50;99.90
16327;DHT22;34812;49.846;9.610;2022-08-18T04:44:53;16.50;99.90
16327;DHT22;34812;49.846;9.610;2022-08-18T04:45:55;16.50;99.90
16327;DHT22;34812;49.846;9.610;2022-08-18T04:47:01;16.50;99.90
16327;DHT22;34812;49.846;9.610;2022-08-18T04:48:03;16.50;99.90
16327;DHT22;34812;49.846;9.610;2022-08-18T04:49:04;16.50;99.90
16327;DHT22;34812;49.846;9.610;2022-08-18T04:50:06;16.50;99.90
16327;DHT22;34812;49.846;9.610;2022-08-18T04:51:10;16.50;99.90
16327;DHT22;34812;49.846;9.610;2022-08-18T04:52:11;16.60;99.90
16327;DHT22;34812;49.846;9.610;2022-08-18T04:53:30;16.60;99.90
16327;DHT22;34812;49.846;9.610;2022-08-18T04:54:47;16.70;99.90
16327;DHT22;34812;49.846;9.610;2022-08-18T04:55:48;16.70;99.90
16327;DHT22;34812;49.846;9.610;2022-08-18T04:56:51;16.70;99.90
16327;DHT22;34812;49.846;9.610;2022-08-18T04:57:52;16.80;99.90
16327;DHT22;34812;49.846;9.610;2022-08-18T04:58:55;16.80;99.90
16327;DHT22;34812;49.846;9.610;2022-08-18T04:59:58;16.80;99.90
16327;DHT22;34812;49.846;9.610;2022-08-18T05:01:00;16.80;99.90
16327;DHT22;34812;49.846;9.610;2022-08-18T05:02:02;16.80;99.90
16327;DHT22;34812;49.846;9.610;2022-08-18T05:03:08;16.80;99.90
16327;DHT22;34812;49.846;9.610;2022-08-18T05:04:09;16.70;99.90
16327;DHT22;34812;49.846;9.610;2022-08-18T05:05:13;16.70;99.90
16327;DHT22;34812;49.846;9.610;2022-08-18T05:06:13;16.70;99.90
16327;DHT22;34812;49.846;9.610;2022-08-18T05:07:17;16.70;99.90
16327;DHT22;34812;49.846;9.610;2022-08-18T05:08:18;16.80;99.90
16327;DHT22;34812;49.846;9.610;2022-08-18T05:09:21;16.80;99.90
16327;DHT22;34812;49.846;9.610;2022-08-18T05:10:22;16.80;99.90
16327;DHT22;34812;49.846;9.610;2022-08-18T05:11:26;16.80;99.90
16327;DHT22;34812;49.846;9.610;2022-08-18T05:12:27;16.90;99.90
16327;DHT22;34812;49.846;9.610;2022-08-18T05:13:29;16.90;99.90
16327;DHT22;34812;49.846;9.610;2022-08-18T05:14:30;16.90;99.90
16327;DHT22;34812;49.846;9.610;2022-08-18T05:15:33;16.90;99.90
16327;DHT22;34812;49.846;9.610;2022-08-18T05:16:36;16.90;99.90
16327;DHT22;34812;49.846;9.610;2022-08-18T05:17:37;16.90;99.90
16327;DHT22;34812;49.846;9.610;2022-08-18T05:18:39;16.90;99.90
16327;DHT22;34812;49.846;9.610;2022-08-18T05:19:42;16.90;99.90
16327;DHT22;34812;49.846;9.610;2022-08-18T05:20:43;16.90;99.90
16327;DHT22;34812;49.846;9.610;2022-08-18T05:21:45;17.00;99.90
16327;DHT22;34812;49.846;9.610;2022-08-18T05:22:46;16.90;99.90
16327;DHT22;34812;49.846;9.610;2022-08-18T05:23:48;17.00;99.90
16327;DHT22;34812;49.846;9.610;2022-08-18T05:24:50;17.00;99.90
16327;DHT22;34812;49.846;9.610;2022-08-18T05:25:56;17.00;99.90
16327;DHT22;34812;49.846;9.610;2022-08-18T05:26:58;17.10;99.90
16327;DHT22;34812;49.846;9.610;2022-08-18T05:27:59;17.00;99.90
16327;DHT22;34812;49.846;9.610;2022-08-18T05:29:01;17.10;99.90
16327;DHT22;34812;49.846;9.610;2022-08-18T05:30:05;17.10;99.90
16327;DHT22;34812;49.846;9.610;2022-08-18T05:31:10;17.10;99.90
16327;DHT22;34812;49.846;9.610;2022-08-18T05:32:11;17.10;99.90
16327;DHT22;34812;49.846;9.610;2022-08-18T05:33:13;17.10;99.90
16327;DHT22;34812;49.846;9.610;2022-08-18T05:34:14;17.20;99.90
16327;DHT22;34812;49.846;9.610;2022-08-18T05:35:24;17.20;99.90
16327;DHT22;34812;49.846;9.610;2022-08-18T05:36:48;17.20;99.90
16327;DHT22;34812;49.846;9.610;2022-08-18T05:38:18;17.20;99.90
16327;DHT22;34812;49.846;9.610;2022-08-18T05:39:24;17.20;99.90
16327;DHT22;34812;49.846;9.610;2022-08-18T05:40:25;17.20;99.90
16327;DHT22;34812;49.846;9.610;2022-08-18T05:41:32;17.30;99.90
16327;DHT22;34812;49.846;9.610;2022-08-18T05:42:37;17.30;99.90
16327;DHT22;34812;49.846;9.610;2022-08-18T05:43:40;17.30;99.90
16327;DHT22;34812;49.846;9.610;2022-08-18T05:44:46;17.40;99.90
16327;DHT22;34812;49.846;9.610;2022-08-18T05:45:48;17.30;99.90
16327;DHT22;34812;49.846;9.610;2022-08-18T05:46:53;17.30;99.90
16327;DHT22;34812;49.846;9.610;2022-08-18T05:47:57;17.30;99.90
16327;DHT22;34812;49.846;9.610;2022-08-18T05:48:59;17.30;99.90
16327;DHT22;34812;49.846;9.610;2022-08-18T05:50:04;17.30;99.90
16327;DHT22;34812;49.846;9.610;2022-08-18T05:51:12;17.30;99.90
16327;DHT22;34812;49.846;9.610;2022-08-18T05:52:18;17.30;99.90
16327;DHT22;34812;49.846;9.610;2022-08-18T05:53:22;17.30;99.90
16327;DHT22;34812;49.846;9.610;2022-08-18T05:56:59;17.40;99.90
16327;DHT22;34812;49.846;9.610;2022-08-18T05:58:05;17.40;99.90
16327;DHT22;34812;49.846;9.610;2022-08-18T05:59:09;17.50;99.90
16327;DHT22;34812;49.846;9.610;2022-08-18T06:00:13;17.50;99.90
16327;DHT22;34812;49.846;9.610;2022-08-18T06:01:20;17.50;99.90
16327;DHT22;34812;49.846;9.610;2022-08-18T06:02:30;17.60;99.90
16327;DHT22;34812;49.846;9.610;2022-08-18T06:03:35;17.70;99.90
16327;DHT22;34812;49.846;9.610;2022-08-18T06:04:42;17.70;99.90
16327;DHT22;34812;49.846;9.610;2022-08-18T06:05:51;17.70;99.90
16327;DHT22;34812;49.846;9.610;2022-08-18T06:06:54;17.80;99.90
16327;DHT22;34812;49.846;9.610;2022-08-18T06:07:59;17.90;99.90
16327;DHT22;34812;49.846;9.610;2022-08-18T06:09:11;17.90;99.90
16327;DHT22;34812;49.846;9.610;2022-08-18T06:10:12;17.90;99.90
16327;DHT22;34812;49.846;9.610;2022-08-18T06:11:14;17.90;99.90
16327;DHT22;34812;49.846;9.610;2022-08-18T06:12:21;17.90;99.90
16327;DHT22;34812;49.846;9.610;2022-08-18T06:13:24;18.00;99.90
16327;DHT22;34812;49.846;9.610;2022-08-18T06:14:26;18.00;99.90
16327;DHT22;34812;49.846;9.610;2022-08-18T06:15:32;18.00;99.90
16327;DHT22;34812;49.846;9.610;2022-08-18T06:22:37;18.10;99.90
16327;DHT22;34812;49.846;9.610;2022-08-18T06:23:50;18.20;99.90
16327;DHT22;34812;49.846;9.610;2022-08-18T06:25:01;18.20;99.90
16327;DHT22;34812;49.846;9.610;2022-08-18T06:26:10;18.20;99.90
16327;DHT22;34812;49.846;9.610;2022-08-18T06:27:22;18.20;99.90
16327;DHT22;34812;49.846;9.610;2022-08-18T06:28:38;18.30;99.90
16327;DHT22;34812;49.846;9.610;2022-08-18T06:29:53;18.30;99.90
16327;DHT22;34812;49.846;9.610;2022-08-18T06:31:11;18.30;99.90
16327;DHT22;34812;49.846;9.610;2022-08-18T06:32:27;18.30;99.90
16327;DHT22;34812;49.846;9.610;2022-08-18T06:35:35;18.40;99.90
16327;DHT22;34812;49.846;9.610;2022-08-18T06:36:45;18.30;99.90
16327;DHT22;34812;49.846;9.610;2022-08-18T06:37:57;18.40;99.90
16327;DHT22;34812;49.846;9.610;2022-08-18T06:39:25;18.40;99.90
16327;DHT22;34812;49.846;9.610;2022-08-18T06:40:28;18.40;99.90
16327;DHT22;34812;49.846;9.610;2022-08-18T06:41:35;18.40;99.90
16327;DHT22;34812;49.846;9.610;2022-08-18T06:42:37;18.40;99.90
16327;DHT22;34812;49.846;9.610;2022-08-18T06:43:54;18.40;99.90
16327;DHT22;34812;49.846;9.610;2022-08-18T06:45:01;18.40;99.90
16327;DHT22;34812;49.846;9.610;2022-08-18T06:46:08;18.30;99.90
16327;DHT22;34812;49.846;9.610;2022-08-18T06:47:15;18.30;99.90
16327;DHT22;34812;49.846;9.610;2022-08-18T06:48:24;18.30;99.90
16327;DHT22;34812;49.846;9.610;2022-08-18T06:49:35;18.30;99.90
16327;DHT22;34812;49.846;9.610;2022-08-18T06:50:45;18.30;99.90
16327;DHT22;34812;49.846;9.610;2022-08-18T06:51:48;18.40;99.90
16327;DHT22;34812;49.846;9.610;2022-08-18T06:52:56;18.30;99.90
16327;DHT22;34812;49.846;9.610;2022-08-18T06:54:00;18.30;99.90